createdAt,value
2022-08-18T00:02:05.074Z,6.80
2022-08-18T00:04:45.271Z,7.38
2022-08-18T00:07:19.480Z,7.68
2022-08-18T00:09:47.863Z,7.13
2022-08-18T00:12:17.542Z,7.00
2022-08-18T00:14:45.693Z,7.25
2022-08-18T00:17:13.814Z,7.28
2022-08-18T00:19:46.896Z,7.65
2022-08-18T00:22:17.707Z,6.82
2022-08-18T00:24:47.895Z,7.43
2022-08-18T00:27:21.646Z,7.43
2022-08-18T00:29:50.449Z,7.30
2022-08-18T00:32:20.003Z,6.80
2022-08-18T00:34:49.532Z,6.50
2022-08-18T00:37:17.713Z,7.00
2022-08-18T00:39:46.584Z,7.32
2022-08-18T00:42:28.166Z,6.90
2022-08-18T00:45:00.969Z,6.90
2022-08-18T00:47:42.824Z,6.85
2022-08-18T00:50:16.149Z,7.07
2022-08-18T00:52:48.887Z,7.03
2022-08-18T00:55:18.249Z,6.97
2022-08-18T00:57:47.011Z,6.93
2022-08-18T01:00:15.794Z,6.90
2022-08-18T01:02:45.556Z,7.22
2022-08-18T01:05:17.052Z,7.20
2022-08-18T01:07:46.545Z,7.07
2022-08-18T01:10:16.426Z,7.15
2022-08-18T01:12:46.842Z,7.38
2022-08-18T01:15:29.472Z,7.00
2022-08-18T01:18:16.823Z,6.90
2022-08-18T01:21:08.055Z,6.88
2022-08-18T01:23:37.564Z,7.18
2022-08-18T01:26:04.869Z,6.57
2022-08-18T01:28:34.232Z,6.63
2022-08-18T01:31:02.601Z,6.28
2022-08-18T01:33:33.157Z,6.72
2022-08-18T01:36:04.691Z,6.70
2022-08-18T01:38:32.819Z,6.65
2022-08-18T01:41:25.912Z,6.85
2022-08-18T01:43:50.701Z,6.13
2022-08-18T01:46:19.992Z,6.78
2022-08-18T01:48:48.348Z,6.68
2022-08-18T01:51:16.592Z,7.03
2022-08-18T01:53:44.968Z,6.50
2022-08-18T01:56:17.615Z,6.43
2022-08-18T01:58:47.732Z,6.43
2022-08-18T02:01:16.142Z,6.53
2022-08-18T02:03:46.747Z,6.53
2022-08-18T02:06:17.019Z,6.80
2022-08-18T02:08:46.492Z,7.00
2022-08-18T02:11:23.156Z,6.75
2022-08-18T02:13:51.345Z,6.95
2022-08-18T02:16:19.748Z,6.78
2022-08-18T02:18:48.897Z,6.70
2022-08-18T02:21:18.881Z,6.45
2022-08-18T02:23:52.749Z,6.43
2022-08-18T02:26:23.669Z,6.63
2022-08-18T02:28:51.893Z,6.65
2022-08-18T02:31:21.650Z,6.50
2022-08-18T02:33:52.100Z,6.80
2022-08-18T02:36:21.015Z,6.57
2022-08-18T02:38:56.811Z,6.35
2022-08-18T02:41:30.132Z,6.65
2022-08-18T02:43:58.470Z,6.38
2022-08-18T02:46:30.182Z,6.28
2022-08-18T02:48:59.890Z,6.63
2022-08-18T02:51:28.035Z,6.80
2022-08-18T02:53:59.274Z,6.30
2022-08-18T02:56:40.287Z,6.80
2022-08-18T02:59:11.609Z,6.60
2022-08-18T03:01:42.856Z,6.30
2022-08-18T03:04:12.483Z,6.28
2022-08-18T03:06:41.088Z,6.68
2022-08-18T03:09:11.954Z,6.22
2022-08-18T03:11:41.459Z,6.50
2022-08-18T03:14:11.874Z,6.13
2022-08-18T03:16:40.481Z,6.63
2022-08-18T03:19:21.754Z,6.57
2022-08-18T03:21:49.891Z,6.20
2022-08-18T03:24:23.021Z,6.20
2022-08-18T03:26:53.665Z,6.65
2022-08-18T03:29:21.830Z,6.90
2022-08-18T03:31:49.966Z,6.50
2022-08-18T03:34:19.806Z,6.72
2022-08-18T03:36:48.223Z,6.30
2022-08-18T03:39:16.332Z,6.15
2022-08-18T03:41:58.556Z,6.20
2022-08-18T03:44:30.691Z,6.25
2022-08-18T03:46:59.209Z,6.07
2022-08-18T03:49:27.648Z,6.35
2022-08-18T03:51:55.817Z,6.30
2022-08-18T03:54:24.082Z,6.25
2022-08-18T03:56:52.630Z,6.38
2022-08-18T03:59:21.859Z,6.10
2022-08-18T04:01:54.899Z,6.07
2022-08-18T04:04:24.414Z,5.90
2022-08-18T04:06:55.304Z,6.35
2022-08-18T04:09:24.573Z,6.30
2022-08-18T04:11:52.851Z,6.35
2022-08-18T04:14:22.140Z,6.20
2022-08-18T04:16:51.645Z,6.05
2022-08-18T04:19:26.211Z,6.32
2022-08-18T04:21:56.269Z,6.15
2022-08-18T04:24:26.402Z,6.55
2022-08-18T04:26:54.650Z,5.82
2022-08-18T04:29:23.003Z,5.75
2022-08-18T04:31:52.597Z,6.20
2022-08-18T04:34:22.662Z,5.93
2022-08-18T04:36:53.803Z,6.10
2022-08-18T04:39:22.396Z,5.68
2022-08-18T04:41:50.642Z,6.03
2022-08-18T04:44:19.054Z,6.05
2022-08-18T04:46:53.110Z,5.88
2022-08-18T04:49:26.071Z,6.15
2022-08-18T04:52:30.728Z,5.95
2022-08-18T04:54:56.937Z,5.88
2022-08-18T04:57:26.232Z,5.90
2022-08-18T04:59:54.461Z,5.50
2022-08-18T05:02:22.819Z,5.88
2022-08-18T05:04:53.830Z,6.25
2022-08-18T05:07:22.684Z,5.95
2022-08-18T05:09:51.932Z,5.72
2022-08-18T05:12:20.448Z,5.68
2022-08-18T05:14:53.993Z,5.95
2022-08-18T05:17:22.332Z,6.18
2022-08-18T05:19:53.631Z,5.68
2022-08-18T05:22:26.268Z,5.97
2022-08-18T05:25:00.099Z,5.90
2022-08-18T05:27:32.873Z,5.63
2022-08-18T05:30:01.077Z,5.53
2022-08-18T05:32:48.147Z,5.90
2022-08-18T05:35:22.970Z,6.25
2022-08-18T05:38:08.616Z,5.82
2022-08-18T05:40:36.848Z,5.75
2022-08-18T05:43:05.298Z,5.85
2022-08-18T05:45:34.769Z,6.00
2022-08-18T05:48:02.990Z,6.25
2022-08-18T05:50:33.430Z,5.80
2022-08-18T05:53:07.440Z,5.80
2022-08-18T05:56:01.210Z,5.75
2022-08-18T05:58:34.356Z,5.78
2022-08-18T06:01:04.103Z,5.68
2022-08-18T06:03:46.561Z,5.95
2022-08-18T06:06:19.912Z,5.68
2022-08-18T06:08:52.727Z,5.65
2022-08-18T06:11:22.372Z,5.80
2022-08-18T06:13:51.673Z,5.47
2022-08-18T06:16:34.029Z,5.50
2022-08-18T06:19:04.026Z,5.90
2022-08-18T06:21:39.563Z,5.30
2022-08-18T06:24:12.063Z,5.97
2022-08-18T06:26:42.365Z,5.90
2022-08-18T06:29:17.710Z,5.32
2022-08-18T06:31:48.786Z,5.68
2022-08-18T06:34:21.680Z,5.35
2022-08-18T06:36:55.107Z,5.68
2022-08-18T06:39:27.603Z,5.60
2022-08-18T06:41:55.819Z,5.85
2022-08-18T06:44:29.234Z,5.53
2022-08-18T06:47:04.231Z,5.35
2022-08-18T06:49:40.318Z,5.55
2022-08-18T06:52:23.867Z,5.60
2022-08-18T06:54:52.113Z,5.65
2022-08-18T06:57:26.237Z,5.70
2022-08-18T07:00:00.041Z,5.68
2022-08-18T07:02:41.694Z,5.60
2022-08-18T07:05:19.191Z,5.60
2022-08-18T07:08:04.506Z,5.50
2022-08-18T07:10:34.482Z,5.43
2022-08-18T07:13:25.730Z,9.38
2022-08-18T07:15:54.520Z,11.27
2022-08-18T07:18:27.425Z,12.30
2022-08-18T07:20:57.536Z,11.30
2022-08-18T07:23:29.426Z,12.35
2022-08-18T07:26:06.773Z,11.02
2022-08-18T07:28:36.831Z,10.35
2022-08-18T07:31:17.220Z,9.80
2022-08-18T07:33:49.448Z,9.40
2022-08-18T07:36:17.615Z,9.45
2022-08-18T07:38:49.699Z,8.80
2022-08-18T07:41:20.505Z,8.30
2022-08-18T07:44:01.276Z,8.98
2022-08-18T07:46:33.884Z,8.10
2022-08-18T07:49:02.059Z,8.05
2022-08-18T07:51:43.034Z,8.43
2022-08-18T07:54:45.472Z,7.35
2022-08-18T07:57:10.070Z,7.53
2022-08-18T07:59:44.044Z,7.47
2022-08-18T08:02:22.844Z,8.20
2022-08-18T08:04:55.530Z,7.38
2022-08-18T08:07:26.053Z,7.47
2022-08-18T08:10:02.931Z,6.63
2022-08-18T08:12:37.061Z,7.10
2022-08-18T08:15:09.446Z,7.00
2022-08-18T08:17:42.600Z,7.30
2022-08-18T08:20:15.633Z,6.88
2022-08-18T08:22:54.385Z,7.15
2022-08-18T08:28:20.452Z,6.70
2022-08-18T08:30:51.718Z,6.65
2022-08-18T08:33:24.468Z,6.90
2022-08-18T08:35:54.887Z,6.50
2022-08-18T08:38:40.086Z,6.78
2022-08-18T08:41:14.510Z,6.45
2022-08-18T08:43:44.240Z,7.53
2022-08-18T08:46:15.576Z,7.45
2022-08-18T08:48:45.419Z,9.00
2022-08-18T08:51:36.757Z,8.32
2022-08-18T08:54:08.014Z,8.35
2022-08-18T08:56:40.578Z,10.48
2022-08-18T08:59:10.767Z,11.20
2022-08-18T09:01:41.662Z,11.48
2022-08-18T09:04:22.534Z,11.38
2022-08-18T09:06:56.503Z,11.23
2022-08-18T09:09:34.990Z,10.48
2022-08-18T09:12:26.019Z,12.20
2022-08-18T09:15:25.801Z,11.57
2022-08-18T09:18:34.219Z,11.63
2022-08-18T09:21:19.537Z,11.30
2022-08-18T09:23:49.199Z,11.27
2022-08-18T09:26:25.904Z,11.75
2022-08-18T09:28:58.113Z,11.35
2022-08-18T09:31:26.683Z,10.70
2022-08-18T09:34:33.346Z,11.50
2022-08-18T09:37:11.092Z,11.00
2022-08-18T09:39:58.110Z,10.88
2022-08-18T09:42:33.983Z,11.10
2022-08-18T09:45:55.485Z,10.85
2022-08-18T09:48:30.399Z,10.93
2022-08-18T09:51:19.222Z,10.48
2022-08-18T09:54:21.740Z,10.90
2022-08-18T09:57:08.605Z,10.80
2022-08-18T10:00:24.405Z,10.57
2022-08-18T10:03:15.751Z,10.63
2022-08-18T10:06:01.025Z,10.23
2022-08-18T10:09:17.632Z,9.73
2022-08-18T10:12:15.931Z,10.02
2022-08-18T10:15:33.164Z,10.45
2022-08-18T10:18:23.825Z,10.52
2022-08-18T10:21:05.559Z,10.48
2022-08-18T10:24:14.606Z,10.23
2022-08-18T10:27:13.583Z,10.63
2022-08-18T10:30:06.185Z,10.90
2022-08-18T10:32:44.132Z,11.80
2022-08-18T10:35:53.377Z,11.38
2022-08-18T10:38:40.102Z,11.85
2022-08-18T10:41:21.158Z,11.57
2022-08-18T10:43:55.643Z,10.80
2022-08-18T10:46:30.598Z,10.90
2022-08-18T10:49:04.431Z,11.15
2022-08-18T10:52:00.398Z,11.15
2022-08-18T10:54:51.178Z,11.02
2022-08-18T10:57:24.207Z,11.43
2022-08-18T10:59:55.916Z,11.13
2022-08-18T11:03:21.171Z,11.02
2022-08-18T11:05:35.843Z,10.85
2022-08-18T11:08:15.803Z,11.35
2022-08-18T11:13:53.247Z,10.30
2022-08-18T11:16:27.859Z,10.45
2022-08-18T11:18:58.526Z,10.55
2022-08-18T11:21:33.242Z,10.32
2022-08-18T11:24:06.599Z,10.70
2022-08-18T11:26:39.532Z,9.90
2022-08-18T11:29:21.828Z,9.75
2022-08-18T11:31:52.778Z,10.05
2022-08-18T11:34:25.055Z,9.90
2022-08-18T11:36:59.229Z,9.68
2022-08-18T11:42:24.961Z,8.88
2022-08-18T11:44:55.370Z,9.57
2022-08-18T11:47:27.520Z,8.63
2022-08-18T11:49:58.767Z,9.20
2022-08-18T11:55:24.519Z,8.98
2022-08-18T11:57:58.779Z,8.80
2022-08-18T12:03:49.078Z,8.65
2022-08-18T12:06:26.586Z,8.93
2022-08-18T12:08:59.349Z,9.20
2022-08-18T12:11:29.549Z,8.35
2022-08-18T12:14:30.252Z,8.65
2022-08-18T12:19:41.272Z,8.77
2022-08-18T12:22:15.566Z,8.70
2022-08-18T12:24:48.262Z,8.80
2022-08-18T12:27:20.797Z,8.02
2022-08-18T12:29:52.830Z,8.43
2022-08-18T12:32:56.033Z,8.80
2022-08-18T12:35:11.548Z,8.07
2022-08-18T12:40:30.146Z,8.00
2022-08-18T12:42:58.342Z,8.10
2022-08-18T12:45:28.947Z,7.60
2022-08-18T12:47:57.239Z,8.65
2022-08-18T12:50:31.492Z,7.93
2022-08-18T12:53:03.202Z,8.43
2022-08-18T12:55:43.720Z,7.90
2022-08-18T12:58:30.687Z,7.78
2022-08-18T13:01:05.858Z,8.60
2022-08-18T13:03:35.288Z,7.68
2022-08-18T13:06:05.316Z,8.18
2022-08-18T13:08:47.780Z,8.52
2022-08-18T13:11:23.526Z,7.72
2022-08-18T13:13:52.933Z,8.18
2022-08-18T13:16:38.883Z,7.65
2022-08-18T13:19:14.338Z,8.55
2022-08-18T13:21:43.041Z,7.03
2022-08-18T13:24:12.771Z,7.70
2022-08-18T13:26:42.697Z,7.65
2022-08-18T13:29:14.234Z,8.10
2022-08-18T13:31:55.278Z,7.35
2022-08-18T13:34:27.644Z,7.35
2022-08-18T13:36:58.402Z,7.35
2022-08-18T13:39:34.225Z,6.72
2022-08-18T13:42:26.161Z,7.15
2022-08-18T13:44:53.017Z,6.93
2022-08-18T13:47:23.463Z,7.05
2022-08-18T13:49:58.257Z,6.97
2022-08-18T13:52:34.471Z,6.82
2022-08-18T13:55:08.472Z,6.88
2022-08-18T13:57:40.185Z,6.47
2022-08-18T14:00:18.064Z,6.53
2022-08-18T14:02:52.379Z,6.60
2022-08-18T14:05:21.333Z,6.38
2022-08-18T14:08:04.916Z,6.05
2022-08-18T14:10:33.440Z,6.15
2022-08-18T14:13:02.691Z,6.20
2022-08-18T14:15:39.294Z,6.57
2022-08-18T14:18:08.923Z,6.40
2022-08-18T14:21:01.926Z,6.57
2022-08-18T14:23:52.923Z,6.25
2022-08-18T14:26:39.004Z,6.18
2022-08-18T14:29:07.235Z,6.20
2022-08-18T14:31:39.458Z,6.07
2022-08-18T14:34:14.649Z,5.68
2022-08-18T14:36:50.084Z,6.20
2022-08-18T14:39:21.134Z,5.72
2022-08-18T14:41:49.582Z,5.57
2022-08-18T14:44:25.474Z,5.72
2022-08-18T14:47:00.011Z,5.63
2022-08-18T14:49:31.151Z,5.95
2022-08-18T14:51:59.936Z,5.90
2022-08-18T14:54:30.067Z,5.68
2022-08-18T14:56:59.839Z,5.75
2022-08-18T14:59:28.506Z,5.72
2022-08-18T15:01:56.943Z,5.80
2022-08-18T15:04:25.108Z,5.80
2022-08-18T15:06:56.069Z,6.10
2022-08-18T15:09:26.960Z,5.65
2022-08-18T15:11:56.747Z,5.55
2022-08-18T15:14:32.691Z,5.75
2022-08-18T15:17:02.239Z,5.55
2022-08-18T15:19:57.596Z,5.72
2022-08-18T15:22:37.119Z,5.60
2022-08-18T15:25:23.989Z,5.63
2022-08-18T15:27:52.589Z,6.13
2022-08-18T15:30:21.116Z,6.35
2022-08-18T15:32:50.069Z,5.75
2022-08-18T15:35:19.562Z,6.00
2022-08-18T15:37:49.561Z,5.85
2022-08-18T15:40:30.217Z,5.72
2022-08-18T15:43:02.244Z,5.85
2022-08-18T15:45:42.894Z,5.93
2022-08-18T15:48:20.394Z,5.97
2022-08-18T15:50:51.221Z,6.18
2022-08-18T15:53:21.950Z,5.57
2022-08-18T15:55:50.415Z,5.88
2022-08-18T15:58:22.170Z,5.70
2022-08-18T16:00:51.718Z,6.15
2022-08-18T16:03:21.245Z,5.95
2022-08-18T16:05:52.894Z,5.90
2022-08-18T16:08:23.753Z,6.00
2022-08-18T16:10:51.944Z,6.30
2022-08-18T16:13:20.247Z,5.63
2022-08-18T16:15:49.888Z,5.28
2022-08-18T16:18:20.264Z,5.82
2022-08-18T16:20:48.362Z,5.90
2022-08-18T16:23:18.851Z,5.80
2022-08-18T16:25:48.406Z,5.68
2022-08-18T16:28:16.534Z,5.45
2022-08-18T16:30:44.692Z,5.50
2022-08-18T16:33:13.284Z,5.68
2022-08-18T16:35:43.522Z,5.55
2022-08-18T16:38:13.883Z,5.43
2022-08-18T16:40:42.105Z,5.70
2022-08-18T16:43:12.762Z,5.43
2022-08-18T16:45:42.341Z,5.40
2022-08-18T16:48:11.861Z,5.88
2022-08-18T16:50:42.587Z,5.45
2022-08-18T16:53:11.122Z,5.60
2022-08-18T16:55:39.232Z,5.63
2022-08-18T16:58:24.920Z,5.40
2022-08-18T17:01:15.605Z,6.00
2022-08-18T17:04:04.467Z,5.43
2022-08-18T17:06:47.230Z,5.70
2022-08-18T17:09:16.446Z,5.45
2022-08-18T17:11:51.703Z,5.60
2022-08-18T17:14:20.748Z,5.63
2022-08-18T17:16:54.499Z,5.60
2022-08-18T17:19:23.035Z,5.53
2022-08-18T17:21:51.222Z,5.70
2022-08-18T17:24:31.270Z,5.40
2022-08-18T17:27:11.769Z,5.78
2022-08-18T17:29:48.422Z,5.43
2022-08-18T17:32:20.554Z,5.80
2022-08-18T17:34:51.937Z,5.60
2022-08-18T17:37:20.130Z,5.40
2022-08-18T17:39:51.387Z,5.50
2022-08-18T17:42:29.171Z,5.70
2022-08-18T17:44:59.083Z,5.80
2022-08-18T17:47:33.282Z,5.53
2022-08-18T17:50:27.034Z,5.82
2022-08-18T17:53:00.497Z,5.55
2022-08-18T17:55:31.082Z,6.03
2022-08-18T17:58:02.006Z,5.97
2022-08-18T18:00:32.518Z,5.93
2022-08-18T18:03:02.356Z,5.82
2022-08-18T18:05:33.771Z,6.75
2022-08-18T18:08:02.082Z,6.65
2022-08-18T18:10:37.727Z,7.28
2022-08-18T18:13:10.954Z,7.40
2022-08-18T18:15:41.286Z,7.25
2022-08-18T18:18:22.844Z,7.78
2022-08-18T18:20:59.191Z,8.00
2022-08-18T18:23:30.727Z,7.13
2022-08-18T18:25:59.067Z,7.95
2022-08-18T18:28:28.674Z,7.65
2022-08-18T18:30:58.707Z,7.60
2022-08-18T18:33:30.030Z,7.97
2022-08-18T18:35:59.541Z,7.63
2022-08-18T18:38:29.485Z,7.85
2022-08-18T18:40:59.295Z,8.00
2022-08-18T18:43:29.101Z,8.10
2022-08-18T18:46:23.298Z,7.60
2022-08-18T18:49:01.225Z,8.10
2022-08-18T18:51:33.500Z,8.52
2022-08-18T18:54:10.593Z,7.90
2022-08-18T18:56:41.072Z,8.20
2022-08-18T18:59:14.193Z,8.52
2022-08-18T19:01:46.322Z,8.43
2022-08-18T19:04:19.751Z,8.20
2022-08-18T19:06:51.618Z,8.13
2022-08-18T19:09:21.834Z,8.38
2022-08-18T19:11:57.829Z,8.25
2022-08-18T19:14:29.750Z,7.70
2022-08-18T19:17:01.134Z,7.55
2022-08-18T19:19:37.576Z,7.45
2022-08-18T19:22:10.888Z,7.88
2022-08-18T19:24:51.177Z,7.30
2022-08-18T19:27:25.373Z,7.82
2022-08-18T19:29:54.687Z,7.90
2022-08-18T19:32:28.798Z,7.45
2022-08-18T19:34:58.598Z,7.65
2022-08-18T19:37:32.357Z,8.23
2022-08-18T19:40:03.738Z,7.82
2022-08-18T19:42:35.112Z,7.90
2022-08-18T19:45:16.375Z,7.78
2022-08-18T19:47:47.703Z,7.72
2022-08-18T19:50:21.475Z,7.97
2022-08-18T19:53:08.224Z,7.57
2022-08-18T19:55:43.127Z,8.43
2022-08-18T19:58:53.335Z,7.80
2022-08-18T20:01:35.425Z,7.47
2022-08-18T20:04:12.105Z,7.70
2022-08-18T20:06:55.915Z,7.60
2022-08-18T20:09:40.195Z,8.05
2022-08-18T20:12:16.179Z,7.70
2022-08-18T20:14:44.268Z,8.07
2022-08-18T20:17:20.526Z,8.25
2022-08-18T20:20:06.296Z,7.75
2022-08-18T20:22:39.691Z,7.78
2022-08-18T20:25:30.824Z,7.80
2022-08-18T20:28:21.086Z,8.10
2022-08-18T20:30:53.660Z,7.97
2022-08-18T20:33:30.643Z,7.90
2022-08-18T20:36:09.153Z,7.70
2022-08-18T20:38:39.957Z,7.95
2022-08-18T20:41:31.442Z,7.65
2022-08-18T20:44:02.628Z,7.70
2022-08-18T20:46:39.235Z,7.93
2022-08-18T20:49:15.971Z,8.07
2022-08-18T20:51:52.484Z,7.90
2022-08-18T20:54:32.429Z,8.07
2022-08-18T20:57:01.627Z,8.70
2022-08-18T20:59:31.410Z,7.72
2022-08-18T21:02:01.708Z,8.27
2022-08-18T21:04:47.653Z,8.23
2022-08-18T21:07:36.665Z,7.97
2022-08-18T21:10:12.833Z,7.70
2022-08-18T21:12:52.092Z,8.00
2022-08-18T21:15:21.217Z,8.23
2022-08-18T21:17:58.235Z,7.88
2022-08-18T21:20:26.445Z,8.20
2022-08-18T21:23:06.507Z,7.72
2022-08-18T21:25:36.148Z,7.45
2022-08-18T21:28:04.884Z,7.90
2022-08-18T21:30:33.217Z,7.80
2022-08-18T21:33:02.079Z,7.40
2022-08-18T21:35:31.216Z,7.82
2022-08-18T21:38:00.777Z,7.90
2022-08-18T21:40:30.993Z,7.93
2022-08-18T21:43:00.572Z,8.10
2022-08-18T21:45:29.246Z,7.78
2022-08-18T21:47:58.460Z,7.53
2022-08-18T21:50:27.951Z,7.13
2022-08-18T21:52:58.165Z,7.10
2022-08-18T21:55:29.167Z,7.43
2022-08-18T21:58:07.068Z,7.38
2022-08-18T22:00:36.599Z,6.93
2022-08-18T22:03:21.563Z,7.85
2022-08-18T22:05:59.324Z,7.32
2022-08-18T22:08:29.062Z,7.63
2022-08-18T22:11:44.155Z,7.72
2022-08-18T22:14:27.366Z,7.15
2022-08-18T22:17:11.480Z,7.40
2022-08-18T22:19:39.653Z,7.45
2022-08-18T22:22:28.398Z,7.30
2022-08-18T22:24:56.651Z,7.10
2022-08-18T22:27:26.315Z,7.15
2022-08-18T22:30:01.609Z,7.20
2022-08-18T22:32:29.727Z,6.75
2022-08-18T22:34:57.870Z,7.10
2022-08-18T22:37:26.590Z,6.78
2022-08-18T22:39:55.863Z,6.82
2022-08-18T22:42:24.988Z,6.43
2022-08-18T22:44:53.182Z,6.80
2022-08-18T22:47:23.958Z,6.80
2022-08-18T22:49:53.679Z,7.05
2022-08-18T22:52:29.909Z,7.30
2022-08-18T22:54:58.489Z,6.65
2022-08-18T22:57:28.792Z,6.55
2022-08-18T22:59:58.173Z,6.93
2022-08-18T23:02:29.016Z,6.40
2022-08-18T23:04:57.125Z,6.78
2022-08-18T23:07:25.236Z,6.70
2022-08-18T23:09:53.351Z,6.55
2022-08-18T23:12:21.466Z,6.40
2022-08-18T23:14:49.628Z,6.50
2022-08-18T23:17:17.978Z,6.47
2022-08-18T23:19:47.732Z,6.90
2022-08-18T23:22:20.296Z,6.57
2022-08-18T23:24:48.941Z,6.78
2022-08-18T23:27:18.281Z,6.97
2022-08-18T23:29:46.370Z,6.40
2022-08-18T23:32:14.845Z,6.63
2022-08-18T23:34:43.005Z,6.47
2022-08-18T23:37:12.673Z,6.47
2022-08-18T23:39:40.952Z,6.40
2022-08-18T23:42:13.132Z,6.47
2022-08-18T23:44:42.212Z,6.60
2022-08-18T23:47:10.398Z,6.50
2022-08-18T23:49:38.789Z,6.20
2022-08-18T23:52:07.165Z,6.40
2022-08-18T23:54:36.699Z,6.15
2022-08-18T23:57:04.960Z,6.60
2022-08-18T23:59:33.090Z,6.15
